createdAt,value
2022-11-29T00:01:36.904Z,8.00
2022-11-29T00:04:04.508Z,7.91
2022-11-29T00:06:34.152Z,7.94
2022-11-29T00:09:08.267Z,7.86
2022-11-29T00:11:56.304Z,7.88
2022-11-29T00:14:24.947Z,7.87
2022-11-29T00:16:55.195Z,7.85
2022-11-29T00:19:22.633Z,7.90
2022-11-29T00:21:49.561Z,7.86
2022-11-29T00:24:16.493Z,7.86
2022-11-29T00:26:43.380Z,7.97
2022-11-29T00:29:12.991Z,7.96
2022-11-29T00:31:40.963Z,7.95
2022-11-29T00:34:10.336Z,7.96
2022-11-29T00:36:37.773Z,7.94
2022-11-29T00:39:05.912Z,7.92
2022-11-29T00:41:32.943Z,7.89
2022-11-29T00:44:00.412Z,7.85
2022-11-29T00:46:27.349Z,7.90
2022-11-29T00:48:54.200Z,7.87
2022-11-29T00:51:20.997Z,7.81
2022-11-29T00:53:47.899Z,7.90
2022-11-29T00:56:14.785Z,7.91
2022-11-29T00:58:43.499Z,7.87
2022-11-29T01:01:11.590Z,7.87
2022-11-29T01:03:38.631Z,7.84
2022-11-29T01:06:12.353Z,7.83
2022-11-29T01:08:40.030Z,7.83
2022-11-29T01:11:33.366Z,7.82
2022-11-29T01:14:02.747Z,7.83
2022-11-29T01:16:31.048Z,7.89
2022-11-29T01:18:57.971Z,7.83
2022-11-29T01:21:25.328Z,7.85
2022-11-29T01:23:54.344Z,7.79
2022-11-29T01:26:25.346Z,7.77
2022-11-29T01:28:54.650Z,7.75
2022-11-29T01:31:28.547Z,7.75
2022-11-29T01:33:57.305Z,7.75
2022-11-29T01:36:25.149Z,7.81
2022-11-29T01:38:52.644Z,7.80
2022-11-29T01:41:26.559Z,7.74
2022-11-29T01:43:59.343Z,7.79
2022-11-29T01:46:28.903Z,7.77
2022-11-29T01:49:14.286Z,7.77
2022-11-29T01:51:46.185Z,7.77
2022-11-29T01:54:14.948Z,7.71
2022-11-29T01:56:43.052Z,7.78
2022-11-29T01:59:14.539Z,7.77
2022-11-29T02:01:41.509Z,7.77
2022-11-29T02:04:09.119Z,7.74
2022-11-29T02:06:37.387Z,7.69
2022-11-29T02:09:04.667Z,7.76
2022-11-29T02:12:07.453Z,7.79
2022-11-29T02:15:05.434Z,7.73
2022-11-29T02:17:40.711Z,7.75
2022-11-29T02:20:52.336Z,7.73
2022-11-29T02:23:47.331Z,7.68
2022-11-29T02:26:33.915Z,7.70
2022-11-29T02:29:33.708Z,7.70
2022-11-29T02:32:19.103Z,7.77
2022-11-29T02:34:54.316Z,7.77
2022-11-29T02:37:48.858Z,7.69
2022-11-29T02:40:58.359Z,7.59
2022-11-29T02:43:58.676Z,7.53
2022-11-29T02:47:02.511Z,7.74
2022-11-29T02:50:11.204Z,7.79
2022-11-29T02:53:01.309Z,7.70
2022-11-29T02:55:48.062Z,7.66
2022-11-29T02:58:34.069Z,7.76
2022-11-29T03:01:24.984Z,7.76
2022-11-29T03:04:30.033Z,7.79
2022-11-29T03:07:16.211Z,7.77
2022-11-29T03:10:02.763Z,7.80
2022-11-29T03:12:39.421Z,7.66
2022-11-29T03:15:38.996Z,7.80
2022-11-29T03:18:39.869Z,7.72
2022-11-29T03:21:36.063Z,7.79
2022-11-29T03:24:16.702Z,7.79
2022-11-29T03:26:49.907Z,7.81
2022-11-29T03:29:59.302Z,7.75
2022-11-29T03:32:45.504Z,7.78
2022-11-29T03:35:24.809Z,7.54
2022-11-29T03:38:17.019Z,7.65
2022-11-29T03:41:08.128Z,7.67
2022-11-29T03:44:05.471Z,7.44
2022-11-29T03:46:58.579Z,7.60
2022-11-29T03:49:54.600Z,7.51
2022-11-29T03:52:42.529Z,7.59
2022-11-29T03:55:12.340Z,7.56
2022-11-29T03:58:10.728Z,7.56
2022-11-29T04:01:39.325Z,7.54
2022-11-29T04:05:09.458Z,7.62
2022-11-29T04:08:05.923Z,7.59
2022-11-29T04:11:02.921Z,7.62
2022-11-29T04:14:03.820Z,7.63
2022-11-29T04:16:38.894Z,7.61
2022-11-29T04:19:28.687Z,7.54
2022-11-29T04:22:47.807Z,7.60
2022-11-29T04:25:41.297Z,7.61
2022-11-29T04:29:04.492Z,7.63
2022-11-29T04:32:08.892Z,7.63
2022-11-29T04:34:50.371Z,7.72
2022-11-29T04:37:45.884Z,7.70
2022-11-29T04:40:36.231Z,7.61
2022-11-29T04:43:35.518Z,7.77
2022-11-29T04:46:14.186Z,7.71
2022-11-29T04:49:13.199Z,7.80
2022-11-29T04:52:03.992Z,7.67
2022-11-29T04:54:55.010Z,7.74
2022-11-29T04:57:58.418Z,7.68
2022-11-29T05:00:25.355Z,7.75
2022-11-29T05:03:11.308Z,7.57
2022-11-29T05:05:51.230Z,7.68
2022-11-29T05:09:14.325Z,7.74
2022-11-29T05:12:05.342Z,7.74
2022-11-29T05:14:46.931Z,7.77
2022-11-29T05:17:47.555Z,7.80
2022-11-29T05:20:45.433Z,7.80
2022-11-29T05:24:10.010Z,7.84
2022-11-29T05:26:57.598Z,7.85
2022-11-29T05:30:23.719Z,7.84
2022-11-29T05:33:25.464Z,7.85
2022-11-29T05:35:53.091Z,7.78
2022-11-29T05:39:10.839Z,7.86
2022-11-29T05:42:06.552Z,7.82
2022-11-29T05:44:56.595Z,7.83
2022-11-29T05:47:36.751Z,7.91
2022-11-29T05:51:11.590Z,7.90
2022-11-29T05:54:26.033Z,7.89
2022-11-29T05:57:17.389Z,7.89
2022-11-29T05:59:46.369Z,7.85
2022-11-29T06:02:59.201Z,7.80
2022-11-29T06:05:39.557Z,7.91
2022-11-29T06:08:41.931Z,7.87
2022-11-29T06:11:40.096Z,7.87
2022-11-29T06:15:01.857Z,7.84
2022-11-29T06:17:55.191Z,7.87
2022-11-29T06:21:01.554Z,7.87
2022-11-29T06:23:43.684Z,7.95
2022-11-29T06:26:36.254Z,7.93
2022-11-29T06:29:23.923Z,7.91
2022-11-29T06:32:32.917Z,7.91
2022-11-29T06:35:28.151Z,7.90
2022-11-29T06:37:58.422Z,7.90
2022-11-29T06:40:25.869Z,7.91
2022-11-29T06:42:52.725Z,7.93
2022-11-29T06:45:21.752Z,7.84
2022-11-29T06:48:04.485Z,7.93
2022-11-29T06:51:02.031Z,7.95
2022-11-29T06:54:18.232Z,7.99
2022-11-29T06:57:20.821Z,7.98
2022-11-29T07:00:06.506Z,7.98
2022-11-29T07:03:14.308Z,7.97
2022-11-29T07:05:41.821Z,8.02
2022-11-29T07:08:18.819Z,8.01
2022-11-29T07:10:49.978Z,7.99
2022-11-29T07:13:18.325Z,8.03
2022-11-29T07:16:12.587Z,8.04
2022-11-29T07:18:54.534Z,8.05
2022-11-29T07:22:10.597Z,8.09
2022-11-29T07:25:11.361Z,8.15
2022-11-29T07:28:22.442Z,8.17
2022-11-29T07:31:28.930Z,8.18
2022-11-29T07:34:20.296Z,8.20
2022-11-29T07:37:18.805Z,8.22
2022-11-29T07:40:02.539Z,8.23
2022-11-29T07:42:51.034Z,8.26
2022-11-29T07:45:36.066Z,8.20
2022-11-29T07:48:03.697Z,8.34
2022-11-29T07:50:31.748Z,8.28
2022-11-29T07:52:59.785Z,8.35
2022-11-29T07:55:27.822Z,8.32
2022-11-29T07:57:54.654Z,8.35
2022-11-29T08:00:22.311Z,8.39
2022-11-29T08:02:50.532Z,8.42
2022-11-29T08:05:17.970Z,8.31
2022-11-29T08:07:46.348Z,8.43
2022-11-29T08:10:16.718Z,8.51
2022-11-29T08:12:50.290Z,8.43
2022-11-29T08:15:22.194Z,8.60
2022-11-29T08:17:49.640Z,8.58
2022-11-29T08:20:17.351Z,8.59
2022-11-29T08:22:44.230Z,8.54
2022-11-29T08:25:11.672Z,8.60
2022-11-29T08:27:38.994Z,8.62
2022-11-29T08:30:07.239Z,8.66
2022-11-29T08:32:34.989Z,8.62
2022-11-29T08:35:01.985Z,8.76
2022-11-29T08:37:28.760Z,8.73
2022-11-29T08:39:56.135Z,8.80
2022-11-29T08:42:22.907Z,8.85
2022-11-29T08:44:49.737Z,8.83
2022-11-29T08:47:35.143Z,8.91
2022-11-29T08:50:17.369Z,8.91
2022-11-29T08:53:06.153Z,8.98
2022-11-29T08:55:37.298Z,8.98
2022-11-29T08:58:07.839Z,9.03
2022-11-29T09:00:35.367Z,8.99
2022-11-29T09:03:23.604Z,9.09
2022-11-29T09:05:51.046Z,9.07
2022-11-29T09:08:18.287Z,8.99
2022-11-29T09:10:45.237Z,8.99
2022-11-29T09:13:12.885Z,8.98
2022-11-29T09:15:42.202Z,9.13
2022-11-29T09:18:09.223Z,9.10
2022-11-29T09:20:36.349Z,9.15
2022-11-29T09:23:03.143Z,9.20
2022-11-29T09:25:30.108Z,9.17
2022-11-29T09:28:01.272Z,9.21
2022-11-29T09:30:31.277Z,9.27
2022-11-29T09:33:02.619Z,9.20
2022-11-29T09:35:29.934Z,9.19
2022-11-29T09:37:56.775Z,9.26
2022-11-29T09:40:32.591Z,9.27
2022-11-29T09:43:50.435Z,9.35
2022-11-29T09:46:22.972Z,9.34
2022-11-29T09:49:19.744Z,9.37
2022-11-29T09:52:08.281Z,9.40
2022-11-29T09:55:31.636Z,9.35
2022-11-29T09:58:01.220Z,9.35
2022-11-29T10:00:31.154Z,9.32
2022-11-29T10:03:26.700Z,9.42
2022-11-29T10:06:22.143Z,9.35
2022-11-29T10:09:04.647Z,9.50
2022-11-29T10:11:56.266Z,9.49
2022-11-29T10:14:35.847Z,9.39
2022-11-29T10:17:40.685Z,9.50
2022-11-29T10:20:26.583Z,9.39
2022-11-29T10:23:01.410Z,9.37
2022-11-29T10:25:39.026Z,9.37
2022-11-29T10:28:13.831Z,9.44
2022-11-29T10:30:43.065Z,9.48
2022-11-29T10:33:25.595Z,9.48
2022-11-29T10:35:58.958Z,9.60
2022-11-29T10:38:31.189Z,9.50
2022-11-29T10:41:08.760Z,9.54
2022-11-29T10:43:37.384Z,9.54
2022-11-29T10:46:06.199Z,9.52
2022-11-29T10:48:34.721Z,9.51
2022-11-29T10:51:02.409Z,9.62
2022-11-29T10:53:37.446Z,9.50
2022-11-29T10:56:29.457Z,9.35
2022-11-29T10:58:57.979Z,9.61
2022-11-29T11:01:28.872Z,9.70
2022-11-29T11:03:58.038Z,9.69
2022-11-29T11:06:28.597Z,9.75
2022-11-29T11:09:12.420Z,9.61
2022-11-29T11:11:39.751Z,9.61
2022-11-29T11:14:25.655Z,9.72
2022-11-29T11:16:52.777Z,9.77
2022-11-29T11:19:30.826Z,9.54
2022-11-29T11:22:03.556Z,9.61
2022-11-29T11:24:33.783Z,9.55
2022-11-29T11:27:01.519Z,9.61
2022-11-29T11:29:45.374Z,9.54
2022-11-29T11:32:19.159Z,9.61
2022-11-29T11:34:59.454Z,9.64
2022-11-29T11:37:35.570Z,9.53
2022-11-29T11:40:29.181Z,9.49
2022-11-29T11:43:00.684Z,9.49
2022-11-29T11:45:35.563Z,9.57
2022-11-29T11:48:12.613Z,9.64
2022-11-29T11:50:52.274Z,9.71
2022-11-29T11:53:35.707Z,9.71
2022-11-29T11:56:10.919Z,9.79
2022-11-29T11:58:49.635Z,9.79
2022-11-29T12:01:36.328Z,9.68
2022-11-29T12:04:07.408Z,9.80
2022-11-29T12:06:58.900Z,9.82
2022-11-29T12:09:45.577Z,9.87
2022-11-29T12:12:27.407Z,9.92
2022-11-29T12:15:07.529Z,9.93
2022-11-29T12:17:41.911Z,10.05
2022-11-29T12:20:36.673Z,10.06
2022-11-29T12:23:12.254Z,10.10
2022-11-29T12:26:34.833Z,10.14
2022-11-29T12:29:16.209Z,10.13
2022-11-29T12:32:15.808Z,9.99
2022-11-29T12:34:50.258Z,9.96
2022-11-29T12:37:43.797Z,9.96
2022-11-29T12:41:06.575Z,9.89
2022-11-29T12:43:51.423Z,9.92
2022-11-29T12:46:26.286Z,9.99
2022-11-29T12:49:27.358Z,10.02
2022-11-29T12:52:39.406Z,10.11
2022-11-29T12:55:57.315Z,10.16
2022-11-29T12:58:40.099Z,10.18
2022-11-29T13:01:17.283Z,10.14
2022-11-29T13:04:08.089Z,10.11
2022-11-29T13:07:10.148Z,10.05
2022-11-29T13:10:18.205Z,10.12
2022-11-29T13:13:08.744Z,10.07
2022-11-29T13:15:56.593Z,9.92
2022-11-29T13:18:37.605Z,10.04
2022-11-29T13:21:15.848Z,10.20
2022-11-29T13:24:10.685Z,10.20
2022-11-29T13:26:40.684Z,10.24
2022-11-29T13:29:17.039Z,10.27
2022-11-29T13:31:46.093Z,10.27
2022-11-29T13:34:17.105Z,10.27
2022-11-29T13:37:23.813Z,10.01
2022-11-29T13:40:31.408Z,9.97
2022-11-29T13:43:40.191Z,9.93
2022-11-29T13:47:03.354Z,9.84
2022-11-29T13:49:53.749Z,9.78
2022-11-29T13:52:39.186Z,9.78
2022-11-29T13:55:09.948Z,9.70
2022-11-29T13:58:16.630Z,9.69
2022-11-29T14:00:44.370Z,9.66
2022-11-29T14:03:38.609Z,9.71
2022-11-29T14:06:18.601Z,9.73
2022-11-29T14:11:42.960Z,9.68
2022-11-29T14:14:29.533Z,9.65
2022-11-29T14:17:02.054Z,9.66
2022-11-29T14:19:35.061Z,9.69
2022-11-29T14:22:01.804Z,9.71
2022-11-29T14:24:37.278Z,9.70
2022-11-29T14:27:07.594Z,9.65
2022-11-29T14:29:55.227Z,9.48
2022-11-29T14:32:49.771Z,9.54
2022-11-29T14:35:45.619Z,9.55
2022-11-29T14:38:42.425Z,9.43
2022-11-29T14:41:50.999Z,9.51
2022-11-29T14:44:22.331Z,9.46
2022-11-29T14:47:03.102Z,9.47
2022-11-29T14:49:32.123Z,9.43
2022-11-29T14:52:12.766Z,9.45
2022-11-29T14:55:28.832Z,9.40
2022-11-29T14:58:03.574Z,9.39
2022-11-29T15:00:35.149Z,9.37
2022-11-29T15:03:20.540Z,9.35
2022-11-29T15:06:07.719Z,9.29
2022-11-29T15:08:46.938Z,9.25
2022-11-29T15:11:31.401Z,9.22
2022-11-29T15:14:15.383Z,9.16
2022-11-29T15:17:19.728Z,9.17
2022-11-29T15:20:19.597Z,9.15
2022-11-29T15:22:52.436Z,9.04
2022-11-29T15:25:31.063Z,9.07
2022-11-29T15:28:06.087Z,9.07
2022-11-29T15:30:41.410Z,9.05
2022-11-29T15:33:29.191Z,9.03
2022-11-29T15:36:07.634Z,8.94
2022-11-29T15:38:54.869Z,8.99
2022-11-29T15:41:30.782Z,8.97
2022-11-29T15:44:05.710Z,8.96
2022-11-29T15:46:35.289Z,8.98
2022-11-29T15:49:27.884Z,9.05
2022-11-29T15:52:00.930Z,9.10
2022-11-29T15:54:47.364Z,9.14
2022-11-29T15:57:38.968Z,9.17
2022-11-29T16:00:12.052Z,9.19
2022-11-29T16:02:46.258Z,9.22
2022-11-29T16:05:25.379Z,9.21
2022-11-29T16:07:57.810Z,9.19
2022-11-29T16:10:52.793Z,9.18
2022-11-29T16:13:25.768Z,9.18
2022-11-29T16:16:19.023Z,9.14
2022-11-29T16:18:48.803Z,9.13
2022-11-29T16:21:32.686Z,9.11
2022-11-29T16:24:19.584Z,9.07
2022-11-29T16:26:49.017Z,9.08
2022-11-29T16:29:45.176Z,9.03
2022-11-29T16:32:35.110Z,9.00
2022-11-29T16:35:22.240Z,8.91
2022-11-29T16:37:49.349Z,8.92
2022-11-29T16:40:31.407Z,8.93
2022-11-29T16:43:04.398Z,8.95
2022-11-29T16:45:37.995Z,8.89
2022-11-29T16:48:26.591Z,8.81
2022-11-29T16:51:16.227Z,8.84
2022-11-29T16:53:53.291Z,8.83
2022-11-29T16:56:26.184Z,8.87
2022-11-29T16:59:20.542Z,8.83
2022-11-29T17:01:44.637Z,8.82
2022-11-29T17:04:11.501Z,8.67
2022-11-29T17:06:38.410Z,8.76
2022-11-29T17:09:05.893Z,8.69
2022-11-29T17:11:33.072Z,8.71
2022-11-29T17:13:59.863Z,8.69
2022-11-29T17:16:27.054Z,8.73
2022-11-29T17:18:53.956Z,8.71
2022-11-29T17:21:29.438Z,8.63
2022-11-29T17:23:56.298Z,8.60
2022-11-29T17:26:24.211Z,8.37
2022-11-29T17:28:52.299Z,8.54
2022-11-29T17:31:22.799Z,8.54
2022-11-29T17:33:50.270Z,8.53
2022-11-29T17:36:20.271Z,8.49
2022-11-29T17:38:48.045Z,8.52
2022-11-29T17:41:24.299Z,8.52
2022-11-29T17:43:53.428Z,8.57
2022-11-29T17:46:26.604Z,8.55
2022-11-29T17:49:12.115Z,8.50
2022-11-29T17:51:51.776Z,8.48
2022-11-29T17:54:19.388Z,8.52
2022-11-29T17:56:46.226Z,8.55
2022-11-29T17:59:12.999Z,8.45
2022-11-29T18:01:39.916Z,8.51
2022-11-29T18:04:08.278Z,8.48
2022-11-29T18:06:38.393Z,8.47
2022-11-29T18:09:08.619Z,8.48
2022-11-29T18:11:46.996Z,8.41
2022-11-29T18:14:18.715Z,8.31
2022-11-29T18:16:45.897Z,8.29
2022-11-29T18:19:17.449Z,8.27
2022-11-29T18:21:44.463Z,8.29
2022-11-29T18:24:11.772Z,8.30
2022-11-29T18:26:39.523Z,8.27
2022-11-29T18:29:07.772Z,8.16
2022-11-29T18:31:38.385Z,8.18
2022-11-29T18:34:09.649Z,8.22
2022-11-29T18:36:43.050Z,8.11
2022-11-29T18:39:16.582Z,8.09
2022-11-29T18:41:46.669Z,7.83
2022-11-29T18:44:16.777Z,8.05
2022-11-29T18:46:45.088Z,8.05
2022-11-29T18:49:15.292Z,8.04
2022-11-29T18:51:44.573Z,8.03
2022-11-29T18:54:12.493Z,8.00
2022-11-29T18:56:39.861Z,7.96
2022-11-29T18:59:16.906Z,7.94
2022-11-29T19:01:46.142Z,7.88
2022-11-29T19:04:16.859Z,7.89
2022-11-29T19:06:44.335Z,7.93
2022-11-29T19:09:18.447Z,7.91
2022-11-29T19:11:45.270Z,7.87
2022-11-29T19:14:12.939Z,7.85
2022-11-29T19:16:46.207Z,7.85
2022-11-29T19:19:13.497Z,7.77
2022-11-29T19:21:41.339Z,7.77
2022-11-29T19:24:14.563Z,7.72
2022-11-29T19:26:47.059Z,7.71
2022-11-29T19:29:15.210Z,7.61
2022-11-29T19:31:42.571Z,7.59
2022-11-29T19:34:09.574Z,7.52
2022-11-29T19:36:42.299Z,7.61
2022-11-29T19:39:10.074Z,7.64
2022-11-29T19:41:37.817Z,7.49
2022-11-29T19:44:07.683Z,7.50
2022-11-29T19:46:40.998Z,7.49
2022-11-29T19:49:09.382Z,7.41
2022-11-29T19:51:36.902Z,7.50
2022-11-29T19:54:07.413Z,7.43
2022-11-29T19:56:34.343Z,7.44
2022-11-29T19:59:01.269Z,7.44
2022-11-29T20:01:37.894Z,7.39
2022-11-29T20:04:06.669Z,7.30
2022-11-29T20:06:33.570Z,7.32
2022-11-29T20:09:00.407Z,7.25
2022-11-29T20:11:27.377Z,7.24
2022-11-29T20:14:05.595Z,7.19
2022-11-29T20:16:33.438Z,7.07
2022-11-29T20:19:01.546Z,7.04
2022-11-29T20:21:32.269Z,7.02
2022-11-29T20:24:05.841Z,6.94
2022-11-29T20:26:36.055Z,6.85
2022-11-29T20:29:05.563Z,6.85
2022-11-29T20:31:35.043Z,6.79
2022-11-29T20:34:02.030Z,6.75
2022-11-29T20:37:07.279Z,6.72
2022-11-29T20:39:52.501Z,6.66
2022-11-29T20:42:44.459Z,6.57
2022-11-29T20:45:13.892Z,6.56
2022-11-29T20:47:48.561Z,6.51
2022-11-29T20:50:23.758Z,6.51
2022-11-29T20:53:20.022Z,6.46
2022-11-29T20:55:49.301Z,6.42
2022-11-29T20:58:18.222Z,6.37
2022-11-29T21:00:46.159Z,6.40
2022-11-29T21:03:18.140Z,6.34
2022-11-29T21:05:45.648Z,6.30
2022-11-29T21:08:13.372Z,6.31
2022-11-29T21:10:40.469Z,6.27
2022-11-29T21:13:07.961Z,6.27
2022-11-29T21:15:35.370Z,6.27
2022-11-29T21:18:02.673Z,6.32
2022-11-29T21:20:29.848Z,6.38
2022-11-29T21:23:06.246Z,6.48
2022-11-29T21:25:59.680Z,6.51
2022-11-29T21:28:34.987Z,6.55
2022-11-29T21:31:02.169Z,6.64
2022-11-29T21:33:29.500Z,6.74
2022-11-29T21:35:59.552Z,6.70
2022-11-29T21:38:28.880Z,6.85
2022-11-29T21:40:55.661Z,6.80
2022-11-29T21:43:28.732Z,6.80
2022-11-29T21:46:09.413Z,6.77
2022-11-29T21:48:37.684Z,6.85
2022-11-29T21:51:09.876Z,6.80
2022-11-29T21:53:38.122Z,6.89
2022-11-29T21:56:08.556Z,6.96
2022-11-29T21:58:38.384Z,6.94
2022-11-29T22:01:14.781Z,6.99
2022-11-29T22:03:42.287Z,7.02
2022-11-29T22:06:13.462Z,7.04
2022-11-29T22:08:41.594Z,7.09
2022-11-29T22:11:15.134Z,7.10
2022-11-29T22:14:03.108Z,7.12
2022-11-29T22:16:30.205Z,7.10
2022-11-29T22:18:57.169Z,7.14
2022-11-29T22:21:24.047Z,7.15
2022-11-29T22:23:52.608Z,7.18
2022-11-29T22:26:19.513Z,7.21
2022-11-29T22:28:46.338Z,7.24
2022-11-29T22:31:13.463Z,7.20
2022-11-29T22:33:40.570Z,7.20
2022-11-29T22:36:11.249Z,7.19
2022-11-29T22:38:39.189Z,7.21
2022-11-29T22:41:09.870Z,7.22
2022-11-29T22:43:37.876Z,7.23
2022-11-29T22:46:20.258Z,7.23
2022-11-29T22:48:50.725Z,7.20
2022-11-29T22:51:20.921Z,7.24
2022-11-29T22:53:52.249Z,7.27
2022-11-29T22:56:19.453Z,7.27
2022-11-29T22:58:46.818Z,7.25
2022-11-29T23:01:20.339Z,7.25
2022-11-29T23:03:54.199Z,7.25
2022-11-29T23:06:31.123Z,7.27
2022-11-29T23:09:03.707Z,7.31
2022-11-29T23:11:31.373Z,7.26
2022-11-29T23:13:58.736Z,7.25
2022-11-29T23:16:29.435Z,7.27
2022-11-29T23:18:58.759Z,7.13
2022-11-29T23:21:32.153Z,7.35
2022-11-29T23:24:00.867Z,7.33
2022-11-29T23:26:37.374Z,7.33
2022-11-29T23:29:07.159Z,7.33
2022-11-29T23:31:34.304Z,7.25
2022-11-29T23:34:02.512Z,7.31
2022-11-29T23:36:29.571Z,7.28
2022-11-29T23:38:56.372Z,7.32
2022-11-29T23:41:23.221Z,7.28
2022-11-29T23:43:50.184Z,7.28
2022-11-29T23:46:20.659Z,7.17
2022-11-29T23:48:48.311Z,7.24
2022-11-29T23:51:16.858Z,7.19
2022-11-29T23:53:44.286Z,7.24
2022-11-29T23:56:15.479Z,7.23
2022-11-29T23:58:43.574Z,7.25
